Time;durP1;ratioP1;P1;durP2;ratioP2;P2;SDS_P1;SDS_P2;PMS_P1;PMS_P2;Temp;Humidity;BMP_temperature;BMP_pressure;BME280_temperature;BME280_humidity;BME280_pressure;Samples;Min_cycle;Max_cycle;Signal;HPM_P1;HPM_P2
2022/12/09 00:00:28;;;;;;;;;;;5.30;90.60;;;;;;5035529;28;20077;-88
2022/12/09 00:02:54;;;;;;;;;;;5.10;90.80;;;;;;5035768;28;20023;-88
2022/12/09 00:05:19;;;;;;;;;;;5.10;91.20;;;;;;5035663;28;20398;-89
2022/12/09 00:07:45;;;;;;;;;;;5.20;91.20;;;;;;5035613;28;19938;-89
2022/12/09 00:10:10;;;;;;;;;;;5.20;91.20;;;;;;5035447;28;20411;-88
2022/12/09 00:12:36;;;;;;;;;;;5.20;91.30;;;;;;5030894;28;19968;-89
2022/12/09 00:15:01;;;;;;;;;;;5.20;91.40;;;;;;5035496;28;19942;-88
2022/12/09 00:17:27;;;;;;;;;;;5.20;91.80;;;;;;5035436;28;19943;-88
2022/12/09 00:19:52;;;;;;;;;;;5.30;91.60;;;;;;5035439;28;19972;-89
2022/12/09 00:22:18;;;;;;;;;;;5.20;91.50;;;;;;5034777;28;19973;-88
2022/12/09 00:24:43;;;;;;;;;;;5.10;91.70;;;;;;5034019;28;19977;-88
2022/12/09 00:27:09;;;;;;;;;;;5.20;91.10;;;;;;5035291;28;20051;-89
2022/12/09 00:29:34;;;;;;;;;;;5.20;91.10;;;;;;5035230;28;19949;-89
2022/12/09 00:32:00;;;;;;;;;;;5.20;91.40;;;;;;5034234;28;20021;-88
2022/12/09 00:34:25;;;;;;;;;;;5.20;91.30;;;;;;5035103;28;19940;-89
2022/12/09 00:36:51;;;;;;;;;;;5.20;91.20;;;;;;5035093;28;19939;-89
2022/12/09 00:39:16;;;;;;;;;;;5.20;91.70;;;;;;5033803;28;19939;-88
2022/12/09 00:41:42;;;;;;;;;;;5.10;92.10;;;;;;5034961;28;19953;-89
2022/12/09 00:44:08;;;;;;;;;;;5.10;92.10;;;;;;5034877;28;20348;-89
2022/12/09 00:46:34;;;;;;;;;;;5.10;92.30;;;;;;5034924;28;20388;-89
2022/12/09 00:48:59;;;;;;;;;;;5.10;92.40;;;;;;5034853;28;20004;-89
2022/12/09 00:51:25;;;;;;;;;;;5.00;92.30;;;;;;5034522;28;19943;-88
2022/12/09 00:53:53;;;;;;;;;;;5.10;92.40;;;;;;5034517;28;19974;-88
2022/12/09 00:56:19;;;;;;;;;;;5.00;92.50;;;;;;5035012;28;19972;-89
2022/12/09 00:58:45;;;;;;;;;;;5.00;92.50;;;;;;5034915;28;19942;-89
2022/12/09 01:01:10;;;;;;;;;;;4.90;92.90;;;;;;5034173;28;20498;-89
2022/12/09 01:03:36;;;;;;;;;;;4.80;93.30;;;;;;5034374;28;20430;-89
2022/12/09 01:06:06;;;;;;;;;;;4.70;93.40;;;;;;5034528;28;19944;-88
2022/12/09 01:08:31;;;;;;;;;;;4.80;93.40;;;;;;5034535;28;19942;-88
2022/12/09 01:10:57;;;;;;;;;;;4.90;93.40;;;;;;5032874;28;19944;-88
2022/12/09 01:13:22;;;;;;;;;;;4.80;93.40;;;;;;5033939;28;19961;-89
2022/12/09 01:15:48;;;;;;;;;;;4.70;93.50;;;;;;5034372;28;19941;-88
2022/12/09 01:18:13;;;;;;;;;;;4.80;93.70;;;;;;5034284;28;19938;-89
2022/12/09 01:20:39;;;;;;;;;;;4.80;93.70;;;;;;5033830;28;19982;-88
2022/12/09 01:23:05;;;;;;;;;;;4.90;93.80;;;;;;5034021;28;19956;-88
2022/12/09 01:25:30;;;;;;;;;;;5.00;93.80;;;;;;5034216;28;20373;-89
2022/12/09 01:27:56;;;;;;;;;;;4.90;93.80;;;;;;5034132;28;20394;-89
2022/12/09 01:30:22;;;;;;;;;;;4.90;94.00;;;;;;5033882;28;20335;-89
2022/12/09 01:32:47;;;;;;;;;;;4.90;94.20;;;;;;5033865;28;19955;-88
2022/12/09 01:35:13;;;;;;;;;;;5.00;94.30;;;;;;5033947;28;19949;-88
2022/12/09 01:37:38;;;;;;;;;;;5.10;94.30;;;;;;5034199;28;20413;-88
2022/12/09 01:40:05;;;;;;;;;;;5.20;94.00;;;;;;5033910;28;20420;-88
2022/12/09 01:42:31;;;;;;;;;;;5.20;93.40;;;;;;5033294;28;19985;-89
2022/12/09 01:45:16;;;;;;;;;;;5.20;93.50;;;;;;5033299;28;19944;-88
2022/12/09 01:47:41;;;;;;;;;;;5.30;93.30;;;;;;5033772;28;19939;-88
2022/12/09 01:50:07;;;;;;;;;;;5.20;93.10;;;;;;5033737;28;19998;-89
2022/12/09 01:52:33;;;;;;;;;;;5.30;93.10;;;;;;5033462;28;20481;-88
2022/12/09 01:54:58;;;;;;;;;;;5.30;92.70;;;;;;5033595;28;20367;-89
2022/12/09 01:57:24;;;;;;;;;;;5.20;92.70;;;;;;5033548;28;20378;-88
2022/12/09 01:59:51;;;;;;;;;;;5.30;92.70;;;;;;5033585;28;20009;-88
2022/12/09 02:02:17;;;;;;;;;;;5.40;92.70;;;;;;5033122;28;19985;-89
2022/12/09 02:04:46;;;;;;;;;;;5.20;92.60;;;;;;5015747;28;19952;-88
2022/12/09 02:07:12;;;;;;;;;;;5.20;92.90;;;;;;5033680;28;19964;-88
2022/12/09 02:09:38;;;;;;;;;;;5.10;92.80;;;;;;5033453;28;20317;-88
2022/12/09 02:12:23;;;;;;;;;;;5.10;93.20;;;;;;5032888;28;19971;-88
2022/12/09 02:14:54;;;;;;;;;;;5.10;93.20;;;;;;5033355;28;20409;-89
2022/12/09 02:17:30;;;;;;;;;;;5.10;93.50;;;;;;5033302;28;19968;-88
2022/12/09 02:20:00;;;;;;;;;;;5.20;93.30;;;;;;5033277;28;19943;-88
2022/12/09 02:22:30;;;;;;;;;;;5.00;93.30;;;;;;5078728;22;19952;-89
2022/12/09 02:25:05;;;;;;;;;;;5.10;93.40;;;;;;5073130;28;20395;-88
2022/12/09 02:27:39;;;;;;;;;;;5.20;93.40;;;;;;5073161;28;19980;-89
2022/12/09 02:30:08;;;;;;;;;;;5.30;93.30;;;;;;5073133;28;20046;-88
2022/12/09 02:33:00;;;;;;;;;;;5.40;93.00;;;;;;5089976;28;20457;-89
2022/12/09 02:35:37;;;;;;;;;;;5.30;93.00;;;;;;5069265;28;19947;-88
2022/12/09 02:38:12;;;;;;;;;;;5.30;93.00;;;;;;5093242;28;20003;-88
2022/12/09 02:40:40;;;;;;;;;;;5.30;93.00;;;;;;5092060;28;19938;-88
2022/12/09 02:43:08;;;;;;;;;;;5.30;93.10;;;;;;5072957;28;19937;-89
2022/12/09 02:45:34;;;;;;;;;;;5.50;92.90;;;;;;5072909;28;19945;-88
2022/12/09 02:48:01;;;;;;;;;;;5.60;92.70;;;;;;5072965;28;19981;-88
2022/12/09 02:50:28;;;;;;;;;;;5.70;92.60;;;;;;5072911;28;19946;-88
2022/12/09 02:52:55;;;;;;;;;;;5.60;92.40;;;;;;5091694;28;20007;-88
2022/12/09 02:55:20;;;;;;;;;;;5.50;92.60;;;;;;5095049;28;20559;-88
2022/12/09 02:57:47;;;;;;;;;;;5.60;92.70;;;;;;5077308;28;19946;-88
2022/12/09 03:00:14;;;;;;;;;;;5.70;92.60;;;;;;5076868;28;20004;-88
2022/12/09 03:02:42;;;;;;;;;;;5.70;92.60;;;;;;5093263;28;19980;-88
2022/12/09 03:05:12;;;;;;;;;;;5.60;92.30;;;;;;5097052;28;19968;-88
2022/12/09 03:07:40;;;;;;;;;;;5.60;92.50;;;;;;5096988;28;19949;-88
2022/12/09 03:10:18;;;;;;;;;;;5.60;92.40;;;;;;5096913;28;19939;-89
2022/12/09 03:12:48;;;;;;;;;;;5.70;92.30;;;;;;5078462;28;19968;-89
2022/12/09 03:15:16;;;;;;;;;;;5.70;92.20;;;;;;5076581;28;19951;-89
2022/12/09 03:17:43;;;;;;;;;;;5.70;92.30;;;;;;5076519;28;20392;-89
2022/12/09 03:20:19;;;;;;;;;;;5.80;92.00;;;;;;5076471;28;19937;-89
2022/12/09 03:22:45;;;;;;;;;;;5.70;91.80;;;;;;5094201;28;19958;-89
2022/12/09 03:25:17;;;;;;;;;;;5.80;92.00;;;;;;5096661;28;20401;-89
2022/12/09 03:27:45;;;;;;;;;;;5.70;92.00;;;;;;5096659;28;19939;-88
2022/12/09 03:30:12;;;;;;;;;;;5.70;92.10;;;;;;5085928;28;19979;-89
2022/12/09 03:32:39;;;;;;;;;;;5.70;92.10;;;;;;5076356;28;19962;-88
2022/12/09 03:35:10;;;;;;;;;;;5.80;92.20;;;;;;5076224;28;19944;-89
2022/12/09 03:37:36;;;;;;;;;;;5.80;91.60;;;;;;5076161;28;19961;-88
2022/12/09 03:40:03;;;;;;;;;;;5.70;91.70;;;;;;5084424;28;20026;-89
2022/12/09 03:42:41;;;;;;;;;;;5.70;91.70;;;;;;5096294;28;20318;-89
2022/12/09 03:45:09;;;;;;;;;;;5.80;91.70;;;;;;5096287;28;20031;-88
2022/12/09 03:47:35;;;;;;;;;;;5.90;91.70;;;;;;5096248;28;19946;-89
2022/12/09 03:50:01;;;;;;;;;;;5.90;91.30;;;;;;5087579;28;20063;-89
2022/12/09 03:52:38;;;;;;;;;;;5.90;91.20;;;;;;5075727;28;20490;-88
2022/12/09 03:55:07;;;;;;;;;;;5.90;91.30;;;;;;5075789;28;19941;-89
2022/12/09 03:57:35;;;;;;;;;;;5.90;91.60;;;;;;5075957;28;19948;-88
2022/12/09 04:00:01;;;;;;;;;;;5.90;91.60;;;;;;5083467;28;20030;-89
2022/12/09 04:02:27;;;;;;;;;;;5.80;91.70;;;;;;5096180;28;19970;-89
2022/12/09 04:04:53;;;;;;;;;;;5.90;91.70;;;;;;5095879;28;19946;-88
2022/12/09 04:07:18;;;;;;;;;;;6.00;91.60;;;;;;5094962;28;19945;-89
2022/12/09 04:09:44;;;;;;;;;;;5.90;91.40;;;;;;5093745;28;19944;-89
2022/12/09 04:12:10;;;;;;;;;;;5.90;91.60;;;;;;5095357;28;20029;-89
2022/12/09 04:14:35;;;;;;;;;;;6.00;91.60;;;;;;5095692;28;19940;-88
2022/12/09 04:17:01;;;;;;;;;;;5.90;91.50;;;;;;5095677;28;20044;-89
2022/12/09 04:19:26;;;;;;;;;;;5.90;91.70;;;;;;5092587;28;19983;-89
2022/12/09 04:21:52;;;;;;;;;;;5.90;91.80;;;;;;5075098;28;20022;-88
2022/12/09 04:24:17;;;;;;;;;;;6.10;91.70;;;;;;5075286;28;20295;-89
2022/12/09 04:26:43;;;;;;;;;;;6.10;91.30;;;;;;5075226;28;19949;-89
2022/12/09 04:29:10;;;;;;;;;;;6.00;91.40;;;;;;5075128;28;19939;-89
2022/12/09 04:31:35;;;;;;;;;;;6.10;91.40;;;;;;5095081;28;19945;-89
2022/12/09 04:34:01;;;;;;;;;;;6.00;91.30;;;;;;5095280;28;20303;-89
2022/12/09 04:36:26;;;;;;;;;;;5.90;91.60;;;;;;5095299;28;20317;-89
2022/12/09 04:38:52;;;;;;;;;;;6.00;91.80;;;;;;5095263;28;19997;-89
2022/12/09 04:41:17;;;;;;;;;;;6.00;91.90;;;;;;5076968;28;19944;-89
2022/12/09 04:43:43;;;;;;;;;;;5.90;91.80;;;;;;5074954;28;19941;-89
2022/12/09 04:46:10;;;;;;;;;;;5.90;91.80;;;;;;5075143;28;20603;-88
2022/12/09 04:48:36;;;;;;;;;;;6.00;91.80;;;;;;5074830;28;20382;-88
2022/12/09 04:51:01;;;;;;;;;;;6.00;91.60;;;;;;5075171;28;19949;-89
2022/12/09 04:53:27;;;;;;;;;;;6.00;91.60;;;;;;5074465;28;19971;-89
2022/12/09 04:56:00;;;;;;;;;;;5.90;92.00;;;;;;5074917;28;20543;-88
2022/12/09 04:58:25;;;;;;;;;;;5.90;92.30;;;;;;5074603;28;19965;-89
2022/12/09 05:00:51;;;;;;;;;;;6.00;91.70;;;;;;5080499;28;20395;-89
2022/12/09 05:03:16;;;;;;;;;;;5.90;91.80;;;;;;5094763;28;20412;-89
2022/12/09 05:05:42;;;;;;;;;;;5.90;91.90;;;;;;5094731;28;19941;-89
2022/12/09 05:08:07;;;;;;;;;;;5.90;92.10;;;;;;5094675;28;20033;-89
2022/12/09 05:10:33;;;;;;;;;;;5.90;92.00;;;;;;5083412;28;19995;-89
2022/12/09 05:12:58;;;;;;;;;;;5.80;92.00;;;;;;5088253;28;20540;-89
2022/12/09 05:15:24;;;;;;;;;;;5.70;92.20;;;;;;5094549;28;19938;-89
2022/12/09 05:17:49;;;;;;;;;;;5.90;92.30;;;;;;5094567;28;20430;-89
2022/12/09 05:20:15;;;;;;;;;;;5.90;92.10;;;;;;5091934;28;20355;-89
2022/12/09 05:22:40;;;;;;;;;;;5.90;92.10;;;;;;5093137;28;20016;-88
2022/12/09 05:25:06;;;;;;;;;;;5.90;92.30;;;;;;5075871;28;19942;-89
2022/12/09 05:27:32;;;;;;;;;;;6.00;92.10;;;;;;5094324;28;20440;-89
2022/12/09 05:29:57;;;;;;;;;;;6.00;92.10;;;;;;5088190;28;20409;-89
2022/12/09 05:32:23;;;;;;;;;;;5.90;92.00;;;;;;5073870;28;19961;-89
2022/12/09 05:34:49;;;;;;;;;;;5.90;92.20;;;;;;5055973;28;19946;-89
2022/12/09 05:37:15;;;;;;;;;;;5.90;92.30;;;;;;5073875;28;20032;-89
2022/12/09 05:39:40;;;;;;;;;;;5.80;92.30;;;;;;5090893;28;19992;-89
2022/12/09 05:42:06;;;;;;;;;;;5.70;92.50;;;;;;5094231;28;20346;-88
2022/12/09 05:44:31;;;;;;;;;;;5.70;92.60;;;;;;5094017;28;19981;-89
2022/12/09 05:46:57;;;;;;;;;;;5.70;92.70;;;;;;5093946;28;19956;-89
2022/12/09 05:49:23;;;;;;;;;;;5.80;92.70;;;;;;5079098;28;19937;-88
2022/12/09 05:51:48;;;;;;;;;;;5.70;92.70;;;;;;5073481;28;19942;-88
2022/12/09 05:54:14;;;;;;;;;;;5.70;92.70;;;;;;5073342;28;19936;-89
2022/12/09 05:56:39;;;;;;;;;;;5.70;92.80;;;;;;5073547;28;19949;-89
2022/12/09 05:59:05;;;;;;;;;;;5.70;93.00;;;;;;5085018;28;19963;-89
2022/12/09 06:01:30;;;;;;;;;;;5.90;93.10;;;;;;5075507;28;19945;-88
2022/12/09 06:03:56;;;;;;;;;;;6.10;92.90;;;;;;5093923;28;19944;-88
2022/12/09 06:06:22;;;;;;;;;;;6.30;92.20;;;;;;5093666;28;20036;-88
2022/12/09 06:08:48;;;;;;;;;;;6.20;91.00;;;;;;5084106;28;19944;-88
2022/12/09 06:11:18;;;;;;;;;;;6.10;91.20;;;;;;5073324;28;19945;-88
2022/12/09 06:13:43;;;;;;;;;;;6.10;91.30;;;;;;5073210;28;19982;-88
2022/12/09 06:16:09;;;;;;;;;;;6.00;91.60;;;;;;5073316;28;19940;-88
2022/12/09 06:18:35;;;;;;;;;;;5.90;91.80;;;;;;5080047;28;19953;-88
2022/12/09 06:21:04;;;;;;;;;;;5.90;92.00;;;;;;5093255;28;20015;-88
2022/12/09 06:23:30;;;;;;;;;;;5.90;92.20;;;;;;5093381;28;19947;-88
2022/12/09 06:25:55;;;;;;;;;;;5.90;92.10;;;;;;5093371;28;19936;-88
2022/12/09 06:28:21;;;;;;;;;;;6.00;91.90;;;;;;5087960;28;20318;-88
2022/12/09 06:30:46;;;;;;;;;;;6.00;91.90;;;;;;5072659;28;19937;-88
2022/12/09 06:33:12;;;;;;;;;;;6.20;91.90;;;;;;5073025;28;19999;-88
2022/12/09 06:35:37;;;;;;;;;;;6.30;91.70;;;;;;5073091;28;19949;-88
2022/12/09 06:38:03;;;;;;;;;;;6.40;91.30;;;;;;5057212;28;19956;-88
2022/12/09 06:40:28;;;;;;;;;;;6.40;91.20;;;;;;5092849;28;19949;-89
2022/12/09 06:42:54;;;;;;;;;;;6.40;90.70;;;;;;5091066;28;19952;-88
2022/12/09 06:45:20;;;;;;;;;;;6.30;90.80;;;;;;5092849;28;19954;-89
2022/12/09 06:47:45;;;;;;;;;;;6.20;91.10;;;;;;5093098;28;19944;-88
2022/12/09 06:50:11;;;;;;;;;;;6.20;91.30;;;;;;5093124;28;19936;-88
2022/12/09 06:52:37;;;;;;;;;;;6.10;91.50;;;;;;5085233;28;19987;-88
2022/12/09 06:55:03;;;;;;;;;;;6.00;91.70;;;;;;5072534;28;19997;-88
2022/12/09 06:57:29;;;;;;;;;;;6.00;91.90;;;;;;5073058;28;19950;-88
2022/12/09 06:59:54;;;;;;;;;;;6.00;91.90;;;;;;5072577;28;19937;-89
2022/12/09 07:02:20;;;;;;;;;;;6.10;92.00;;;;;;5077077;28;20033;-88
2022/12/09 07:04:46;;;;;;;;;;;6.30;91.80;;;;;;5092958;28;19943;-88
2022/12/09 07:07:11;;;;;;;;;;;6.40;91.30;;;;;;5092641;28;19936;-88
2022/12/09 07:09:37;;;;;;;;;;;6.50;90.80;;;;;;5093191;28;19940;-88
2022/12/09 07:12:02;;;;;;;;;;;6.60;90.40;;;;;;5091135;28;19996;-88
2022/12/09 07:14:28;;;;;;;;;;;6.40;90.10;;;;;;5074838;28;19949;-88
2022/12/09 07:16:53;;;;;;;;;;;6.30;90.80;;;;;;5072591;28;20469;-88
2022/12/09 07:19:21;;;;;;;;;;;6.20;91.30;;;;;;5072534;28;20382;-88
2022/12/09 07:21:47;;;;;;;;;;;6.20;91.50;;;;;;5072228;28;19976;-88
2022/12/09 07:24:12;;;;;;;;;;;6.10;91.70;;;;;;5075309;28;20050;-89
2022/12/09 07:26:38;;;;;;;;;;;6.10;91.90;;;;;;5072432;28;19971;-88
2022/12/09 07:29:04;;;;;;;;;;;6.20;91.90;;;;;;5072523;28;19944;-89
2022/12/09 07:31:30;;;;;;;;;;;6.10;92.00;;;;;;5072573;28;19943;-89
2022/12/09 07:33:56;;;;;;;;;;;6.20;92.10;;;;;;5065699;28;20005;-89
2022/12/09 07:36:23;;;;;;;;;;;6.20;92.20;;;;;;5064947;28;19988;-89
2022/12/09 07:38:53;;;;;;;;;;;6.10;92.20;;;;;;5072455;28;19982;-89
2022/12/09 07:41:18;;;;;;;;;;;6.10;92.40;;;;;;5072687;28;20043;-89
2022/12/09 07:43:44;;;;;;;;;;;6.30;92.40;;;;;;5090952;28;20415;-88
2022/12/09 07:46:10;;;;;;;;;;;6.40;91.60;;;;;;5093520;28;19946;-88
2022/12/09 07:48:36;;;;;;;;;;;6.40;91.30;;;;;;5058050;28;19983;-88
2022/12/09 07:51:02;;;;;;;;;;;6.30;91.40;;;;;;5075947;28;20020;-88
2022/12/09 07:53:28;;;;;;;;;;;6.20;91.90;;;;;;5088776;28;20003;-88
2022/12/09 07:55:54;;;;;;;;;;;6.10;92.20;;;;;;5096091;28;19949;-88
2022/12/09 07:58:19;;;;;;;;;;;6.00;92.40;;;;;;5095045;28;19943;-89
2022/12/09 08:00:45;;;;;;;;;;;6.20;92.40;;;;;;5075109;28;20321;-88
2022/12/09 08:03:11;;;;;;;;;;;6.40;91.80;;;;;;5072672;28;19945;-89
2022/12/09 08:05:44;;;;;;;;;;;6.50;91.40;;;;;;5057666;28;19969;-88
2022/12/09 08:08:10;;;;;;;;;;;6.50;91.20;;;;;;5075670;28;19978;-88
2022/12/09 08:10:35;;;;;;;;;;;6.60;91.00;;;;;;5075609;28;20026;-88
2022/12/09 08:13:01;;;;;;;;;;;6.40;91.20;;;;;;5064448;28;20321;-88
2022/12/09 08:15:26;;;;;;;;;;;6.20;92.10;;;;;;5095101;28;19944;-88
2022/12/09 08:17:52;;;;;;;;;;;6.10;92.30;;;;;;5095733;28;19945;-88
2022/12/09 08:20:17;;;;;;;;;;;6.10;92.50;;;;;;5065455;28;20358;-88
2022/12/09 08:22:43;;;;;;;;;;;6.10;92.70;;;;;;5075727;28;19988;-89
2022/12/09 08:25:09;;;;;;;;;;;6.00;92.90;;;;;;5075258;28;19995;-89
2022/12/09 08:27:34;;;;;;;;;;;6.10;93.10;;;;;;5075273;28;19980;-89
2022/12/09 08:30:00;;;;;;;;;;;6.40;92.70;;;;;;5075264;28;19988;-88
2022/12/09 08:32:26;;;;;;;;;;;6.40;92.20;;;;;;5078451;28;19958;-88
2022/12/09 08:34:51;;;;;;;;;;;6.50;91.90;;;;;;5094612;28;19996;-89
2022/12/09 08:37:17;;;;;;;;;;;6.50;91.80;;;;;;5095252;28;19939;-89
2022/12/09 08:39:42;;;;;;;;;;;6.40;92.00;;;;;;5095309;28;19937;-89
2022/12/09 08:42:08;;;;;;;;;;;6.40;91.80;;;;;;5058867;28;19941;-88
2022/12/09 08:44:33;;;;;;;;;;;6.30;91.90;;;;;;5074959;28;19942;-89
2022/12/09 08:46:59;;;;;;;;;;;6.30;92.30;;;;;;5074951;28;19987;-88
2022/12/09 08:49:26;;;;;;;;;;;6.30;92.50;;;;;;5074761;28;19938;-89
2022/12/09 08:51:52;;;;;;;;;;;6.40;92.30;;;;;;5074611;28;19989;-89
2022/12/09 08:54:17;;;;;;;;;;;6.40;92.30;;;;;;5073912;28;19947;-89
2022/12/09 08:56:44;;;;;;;;;;;6.50;92.30;;;;;;5074723;28;19945;-89
2022/12/09 08:59:10;;;;;;;;;;;6.70;92.10;;;;;;5074715;28;19935;-89
2022/12/09 09:01:35;;;;;;;;;;;6.80;91.70;;;;;;5074553;28;20391;-89
2022/12/09 09:04:04;;;;;;;;;;;6.90;91.40;;;;;;5090532;28;19948;-89
2022/12/09 09:06:29;;;;;;;;;;;7.00;90.90;;;;;;5094767;28;19951;-89
2022/12/09 09:08:55;;;;;;;;;;;6.90;90.40;;;;;;5094733;28;19999;-89
2022/12/09 09:11:22;;;;;;;;;;;6.70;91.10;;;;;;5094543;28;19945;-88
2022/12/09 09:13:50;;;;;;;;;;;6.50;91.90;;;;;;5092473;28;19959;-88
2022/12/09 09:16:16;;;;;;;;;;;6.40;92.30;;;;;;5094588;28;19943;-89
2022/12/09 09:18:42;;;;;;;;;;;6.40;92.20;;;;;;5094554;28;19939;-89
2022/12/09 09:21:09;;;;;;;;;;;6.50;92.30;;;;;;5094049;28;20407;-89
2022/12/09 09:23:34;;;;;;;;;;;6.60;91.80;;;;;;5082325;28;20312;-89
2022/12/09 09:26:00;;;;;;;;;;;6.70;91.80;;;;;;5074036;28;19942;-89
2022/12/09 09:28:26;;;;;;;;;;;6.80;91.50;;;;;;5074067;28;20022;-88
2022/12/09 09:31:02;;;;;;;;;;;6.90;90.90;;;;;;5074002;28;19939;-89
2022/12/09 09:33:27;;;;;;;;;;;7.00;90.30;;;;;;5078165;28;19966;-88
2022/12/09 09:35:57;;;;;;;;;;;7.00;90.00;;;;;;5074146;28;19944;-88
2022/12/09 09:38:22;;;;;;;;;;;6.90;90.00;;;;;;5073855;28;19934;-88
2022/12/09 09:40:48;;;;;;;;;;;6.70;90.50;;;;;;5073849;28;20312;-89
2022/12/09 09:43:15;;;;;;;;;;;6.60;91.40;;;;;;5081695;28;19991;-88
2022/12/09 09:45:41;;;;;;;;;;;6.50;91.60;;;;;;5077125;28;20018;-89
2022/12/09 09:48:10;;;;;;;;;;;6.40;92.00;;;;;;5073645;28;19938;-89
2022/12/09 09:50:54;;;;;;;;;;;6.30;92.20;;;;;;5073589;28;20518;-89
2022/12/09 09:53:23;;;;;;;;;;;6.30;92.40;;;;;;5053344;28;20001;-89
2022/12/09 09:56:11;;;;;;;;;;;6.50;92.30;;;;;;5053904;28;19940;-89
2022/12/09 09:58:43;;;;;;;;;;;6.70;91.80;;;;;;5042403;28;20000;-89
2022/12/09 10:01:11;;;;;;;;;;;6.80;91.20;;;;;;5061619;28;19945;-89
2022/12/09 10:03:36;;;;;;;;;;;6.80;91.00;;;;;;5063493;28;19953;-88
2022/12/09 10:06:08;;;;;;;;;;;6.90;91.10;;;;;;5052780;28;19942;-89
2022/12/09 10:08:55;;;;;;;;;;;6.80;91.00;;;;;;5053380;28;19938;-89
2022/12/09 10:11:27;;;;;;;;;;;6.60;92.00;;;;;;5064327;28;20055;-89
2022/12/09 10:13:54;;;;;;;;;;;6.50;92.70;;;;;;5093061;28;19996;-89
2022/12/09 10:16:22;;;;;;;;;;;6.60;92.60;;;;;;5093477;28;19948;-89
2022/12/09 10:18:54;;;;;;;;;;;6.80;92.20;;;;;;5093475;28;19935;-89
2022/12/09 10:21:20;;;;;;;;;;;6.80;91.80;;;;;;5065761;22;19962;-89
2022/12/09 10:23:46;;;;;;;;;;;6.90;91.90;;;;;;5053220;28;19945;-89
2022/12/09 10:26:17;;;;;;;;;;;7.00;91.60;;;;;;5052703;28;20274;-89
2022/12/09 10:28:44;;;;;;;;;;;7.10;91.20;;;;;;5053397;28;19968;-88
2022/12/09 10:31:10;;;;;;;;;;;7.20;91.00;;;;;;5049399;28;19941;-89
2022/12/09 10:33:37;;;;;;;;;;;7.00;91.40;;;;;;5032980;28;19983;-89
2022/12/09 10:36:03;;;;;;;;;;;7.10;91.60;;;;;;5033100;28;19942;-88
2022/12/09 10:38:29;;;;;;;;;;;6.90;92.20;;;;;;5033107;28;19945;-89
2022/12/09 10:40:58;;;;;;;;;;;6.90;92.50;;;;;;5033983;28;20028;-89
2022/12/09 10:46:08;;;;;;;;;;;6.70;93.40;;;;;;5053182;28;19966;-89
2022/12/09 10:48:45;;;;;;;;;;;6.70;93.80;;;;;;5053200;28;19946;-89
2022/12/09 10:51:14;;;;;;;;;;;6.70;93.80;;;;;;5035966;28;20432;-89
2022/12/09 10:53:47;;;;;;;;;;;7.00;93.50;;;;;;5032737;28;19973;-89
2022/12/09 10:56:22;;;;;;;;;;;7.10;92.70;;;;;;5032974;28;20013;-88
2022/12/09 10:58:47;;;;;;;;;;;7.20;92.10;;;;;;5032970;28;19992;-88
2022/12/09 11:01:14;;;;;;;;;;;7.20;91.80;;;;;;5031204;28;19955;-89
2022/12/09 11:03:50;;;;;;;;;;;7.20;91.80;;;;;;5032335;28;19989;-88
2022/12/09 11:06:16;;;;;;;;;;;7.20;91.70;;;;;;5032881;28;19935;-89
2022/12/09 11:08:47;;;;;;;;;;;7.10;91.20;;;;;;5033105;28;20035;-88
2022/12/09 11:11:13;;;;;;;;;;;6.80;92.50;;;;;;5032375;28;19949;-89
2022/12/09 11:13:41;;;;;;;;;;;6.80;93.10;;;;;;5032577;28;20296;-88
2022/12/09 11:16:06;;;;;;;;;;;6.60;93.10;;;;;;5033088;28;20036;-89
2022/12/09 11:18:39;;;;;;;;;;;6.70;93.20;;;;;;5036680;28;20091;-89
2022/12/09 11:21:06;;;;;;;;;;;6.90;93.30;;;;;;5043007;28;20063;-88
2022/12/09 11:23:32;;;;;;;;;;;6.90;92.40;;;;;;5056795;28;19957;-89
2022/12/09 11:25:59;;;;;;;;;;;6.90;92.40;;;;;;5056743;28;20031;-88
2022/12/09 11:28:28;;;;;;;;;;;6.90;92.50;;;;;;5056396;28;19991;-88
2022/12/09 11:30:57;;;;;;;;;;;6.80;92.70;;;;;;5056043;28;19974;-88
2022/12/09 11:33:34;;;;;;;;;;;6.80;92.90;;;;;;5056208;28;19979;-89
2022/12/09 11:36:03;;;;;;;;;;;6.80;93.00;;;;;;5056217;28;20363;-89
2022/12/09 11:38:37;;;;;;;;;;;6.90;92.90;;;;;;5056172;28;20395;-89
2022/12/09 11:41:03;;;;;;;;;;;6.80;93.10;;;;;;5055929;28;20019;-89
2022/12/09 11:43:35;;;;;;;;;;;7.10;93.00;;;;;;5056111;28;19974;-89
2022/12/09 11:46:05;;;;;;;;;;;7.30;92.40;;;;;;5056067;28;19945;-88
2022/12/09 11:48:32;;;;;;;;;;;7.40;91.90;;;;;;5056056;28;20310;-89
2022/12/09 11:50:58;;;;;;;;;;;7.40;91.40;;;;;;5055284;28;19948;-88
2022/12/09 11:53:28;;;;;;;;;;;7.30;91.50;;;;;;5055672;28;19966;-88
2022/12/09 11:56:11;;;;;;;;;;;7.20;91.70;;;;;;5055918;28;20033;-88
2022/12/09 11:58:41;;;;;;;;;;;7.10;92.10;;;;;;5035858;28;19942;-88
2022/12/09 12:01:18;;;;;;;;;;;7.10;92.30;;;;;;5050723;28;20039;-89
2022/12/09 12:03:48;;;;;;;;;;;7.00;92.30;;;;;;5055714;28;19939;-88
2022/12/09 12:06:25;;;;;;;;;;;7.10;92.50;;;;;;5055659;28;20028;-89
2022/12/09 12:08:55;;;;;;;;;;;7.10;92.60;;;;;;5055646;28;19977;-88
2022/12/09 12:11:41;;;;;;;;;;;7.30;92.00;;;;;;5055361;28;19949;-88
2022/12/09 12:14:15;;;;;;;;;;;7.40;91.60;;;;;;5044513;28;20066;-88
2022/12/09 12:16:44;;;;;;;;;;;7.40;91.50;;;;;;5054221;28;19941;-88
2022/12/09 12:19:20;;;;;;;;;;;7.40;91.40;;;;;;5055447;28;19946;-89
2022/12/09 12:22:02;;;;;;;;;;;7.40;91.50;;;;;;5055160;28;19999;-88
2022/12/09 12:24:34;;;;;;;;;;;7.20;91.90;;;;;;5055176;28;19951;-88
2022/12/09 12:27:02;;;;;;;;;;;7.10;92.10;;;;;;5054738;28;19940;-88
2022/12/09 12:29:42;;;;;;;;;;;7.10;92.20;;;;;;5054786;28;19945;-88
2022/12/09 12:32:10;;;;;;;;;;;7.00;92.50;;;;;;5055040;28;20396;-89
2022/12/09 12:34:48;;;;;;;;;;;6.90;92.60;;;;;;5055149;28;20429;-88
2022/12/09 12:37:17;;;;;;;;;;;6.90;93.20;;;;;;5055080;28;19947;-89
2022/12/09 12:40:01;;;;;;;;;;;6.90;93.40;;;;;;5055121;28;20003;-88
2022/12/09 12:46:15;;;;;;;;;;;6.80;93.80;;;;;;5055001;28;19936;-89
2022/12/09 12:48:41;;;;;;;;;;;7.50;93.10;;;;;;5055177;28;19944;-89
2022/12/09 12:51:19;;;;;;;;;;;7.60;92.30;;;;;;5054297;28;19945;-88
2022/12/09 12:53:47;;;;;;;;;;;7.50;91.60;;;;;;5053237;28;20342;-89
2022/12/09 12:56:24;;;;;;;;;;;7.50;91.60;;;;;;5054758;28;20082;-88
2022/12/09 12:58:56;;;;;;;;;;;7.50;91.70;;;;;;5054987;28;20051;-88
2022/12/09 13:01:29;;;;;;;;;;;7.50;91.60;;;;;;5054048;28;19969;-88
2022/12/09 13:03:58;;;;;;;;;;;7.50;91.60;;;;;;5054655;28;19951;-89
2022/12/09 13:06:32;;;;;;;;;;;7.40;91.50;;;;;;5054512;28;19938;-88
2022/12/09 13:09:01;;;;;;;;;;;7.40;91.60;;;;;;5054424;28;20293;-89
2022/12/09 13:11:49;;;;;;;;;;;7.40;91.90;;;;;;5054154;28;19946;-88
2022/12/09 13:14:17;;;;;;;;;;;7.40;92.00;;;;;;5054306;28;20442;-88
2022/12/09 13:16:43;;;;;;;;;;;7.40;92.00;;;;;;5054322;28;20379;-88
2022/12/09 13:19:11;;;;;;;;;;;7.40;91.90;;;;;;5054320;28;19986;-89
2022/12/09 13:21:37;;;;;;;;;;;7.40;92.20;;;;;;5053597;28;19973;-88
2022/12/09 13:24:03;;;;;;;;;;;7.40;92.40;;;;;;5054221;28;20027;-88
2022/12/09 13:26:41;;;;;;;;;;;7.40;92.30;;;;;;5054365;28;19997;-88
2022/12/09 13:29:39;;;;;;;;;;;7.50;92.30;;;;;;5054100;28;20029;-88
2022/12/09 13:32:23;;;;;;;;;;;7.60;92.30;;;;;;5000585;28;20444;-88
2022/12/09 13:34:53;;;;;;;;;;;7.60;92.40;;;;;;5034267;28;19948;-89
2022/12/09 13:37:37;;;;;;;;;;;7.50;92.10;;;;;;5034045;28;20310;-88
2022/12/09 13:40:21;;;;;;;;;;;7.40;92.30;;;;;;5036787;28;19948;-89
2022/12/09 13:42:56;;;;;;;;;;;7.50;92.70;;;;;;5053663;28;19946;-89
2022/12/09 13:45:22;;;;;;;;;;;7.50;92.80;;;;;;5053843;28;20037;-89
2022/12/09 13:47:47;;;;;;;;;;;7.60;92.90;;;;;;5053777;28;19995;-88
2022/12/09 13:50:27;;;;;;;;;;;7.70;92.90;;;;;;5053504;28;20540;-89
2022/12/09 13:52:57;;;;;;;;;;;7.70;92.70;;;;;;5053736;28;19965;-88
2022/12/09 13:55:32;;;;;;;;;;;7.80;92.40;;;;;;5053660;28;20035;-88
2022/12/09 13:58:17;;;;;;;;;;;7.90;92.10;;;;;;5053370;28;20281;-88
2022/12/09 14:00:43;;;;;;;;;;;7.90;91.50;;;;;;5051831;28;19947;-88
2022/12/09 14:03:29;;;;;;;;;;;7.90;91.40;;;;;;5053453;28;19991;-88
2022/12/09 14:05:56;;;;;;;;;;;7.90;91.30;;;;;;5053434;28;19948;-89
2022/12/09 14:08:23;;;;;;;;;;;7.90;91.20;;;;;;5053206;28;19950;-89
2022/12/09 14:10:49;;;;;;;;;;;7.80;91.50;;;;;;5053197;28;20290;-89
2022/12/09 14:13:18;;;;;;;;;;;7.80;91.80;;;;;;5053226;28;19964;-88
2022/12/09 14:15:45;;;;;;;;;;;7.80;91.80;;;;;;5053099;28;20420;-88
2022/12/09 14:18:27;;;;;;;;;;;7.90;91.90;;;;;;5053040;28;20030;-88
2022/12/09 14:21:11;;;;;;;;;;;7.80;91.80;;;;;;5052896;28;19977;-89
2022/12/09 14:23:37;;;;;;;;;;;7.90;91.70;;;;;;5051955;28;19942;-88
2022/12/09 14:26:04;;;;;;;;;;;7.90;91.50;;;;;;5053171;28;20509;-88
2022/12/09 14:28:32;;;;;;;;;;;7.90;91.60;;;;;;5052853;28;19951;-89
2022/12/09 14:30:59;;;;;;;;;;;7.80;91.70;;;;;;5051799;28;19944;-88
2022/12/09 14:33:31;;;;;;;;;;;7.70;92.00;;;;;;5051858;28;19980;-89
2022/12/09 14:36:12;;;;;;;;;;;7.70;92.50;;;;;;5053148;28;19942;-88
2022/12/09 14:38:38;;;;;;;;;;;7.70;92.70;;;;;;5052787;28;19947;-89
2022/12/09 14:41:12;;;;;;;;;;;7.50;93.00;;;;;;5051715;28;19951;-88
2022/12/09 14:43:46;;;;;;;;;;;7.50;93.10;;;;;;5052520;28;19943;-88